createdAt,value
2023-03-06T00:00:49.962Z,1.85
2023-03-06T00:03:16.806Z,4.53
2023-03-06T00:05:43.215Z,4.78
2023-03-06T00:08:09.618Z,5.57
2023-03-06T00:10:36.079Z,3.13
2023-03-06T00:13:05.359Z,1.90
2023-03-06T00:15:35.280Z,3.67
2023-03-06T00:18:06.869Z,1.60
2023-03-06T00:20:34.963Z,3.17
2023-03-06T00:23:01.625Z,2.37
2023-03-06T00:25:27.941Z,2.35
2023-03-06T00:27:54.256Z,2.63
2023-03-06T00:30:22.859Z,3.20
2023-03-06T00:32:49.978Z,2.70
2023-03-06T00:35:17.278Z,4.03
2023-03-06T00:37:44.011Z,6.80
2023-03-06T00:40:14.514Z,2.15
2023-03-06T00:42:41.355Z,1.42
2023-03-06T00:45:08.223Z,3.67
2023-03-06T00:47:34.603Z,3.43
2023-03-06T00:50:00.922Z,2.97
2023-03-06T00:52:27.382Z,3.53
2023-03-06T00:54:53.824Z,2.83
2023-03-06T00:57:20.154Z,2.88
2023-03-06T00:59:46.462Z,2.30
2023-03-06T01:02:13.060Z,4.07
2023-03-06T01:04:39.517Z,2.47
2023-03-06T01:07:05.918Z,3.17
2023-03-06T01:09:32.511Z,5.25
2023-03-06T01:11:59.093Z,6.13
2023-03-06T01:14:25.954Z,4.45
2023-03-06T01:16:53.919Z,3.00
2023-03-06T01:19:20.403Z,4.13
2023-03-06T01:21:46.771Z,3.00
2023-03-06T01:24:13.333Z,5.30
2023-03-06T01:26:39.673Z,3.70
2023-03-06T01:29:06.311Z,4.07
2023-03-06T01:31:32.856Z,4.28
2023-03-06T01:33:59.238Z,3.58
2023-03-06T01:36:25.551Z,4.33
2023-03-06T01:38:51.892Z,3.78
2023-03-06T01:41:18.374Z,5.55
2023-03-06T01:43:46.239Z,4.18
2023-03-06T01:46:34.314Z,3.78
2023-03-06T01:49:08.297Z,5.03
2023-03-06T01:51:39.613Z,4.88
2023-03-06T01:54:12.053Z,4.68
2023-03-06T01:56:41.828Z,7.68
2023-03-06T01:59:08.305Z,4.00
2023-03-06T02:01:35.448Z,5.87
2023-03-06T02:04:02.271Z,6.22
2023-03-06T02:06:28.588Z,7.38
2023-03-06T02:08:55.984Z,7.55
2023-03-06T02:11:24.648Z,5.40
2023-03-06T02:13:53.541Z,6.70
2023-03-06T02:16:26.623Z,8.32
2023-03-06T02:18:54.238Z,6.85
2023-03-06T02:21:35.536Z,7.35
2023-03-06T02:24:15.892Z,8.15
2023-03-06T02:26:43.650Z,10.07
2023-03-06T02:29:09.977Z,10.52
2023-03-06T02:31:36.493Z,8.52
2023-03-06T02:34:04.409Z,10.07
2023-03-06T02:36:33.558Z,10.93
2023-03-06T02:39:00.214Z,9.33
2023-03-06T02:41:26.855Z,10.40
2023-03-06T02:43:53.162Z,15.20
2023-03-06T02:46:19.593Z,9.15
2023-03-06T02:48:45.945Z,13.68
2023-03-06T02:51:12.258Z,9.67
2023-03-06T02:53:38.658Z,12.68
2023-03-06T02:56:05.380Z,8.20
2023-03-06T02:58:31.722Z,15.73
2023-03-06T03:00:58.027Z,7.38
2023-03-06T03:03:24.435Z,8.80
2023-03-06T03:05:50.741Z,10.18
2023-03-06T03:08:17.724Z,14.13
2023-03-06T03:10:44.173Z,11.13
2023-03-06T03:13:10.594Z,10.10
2023-03-06T03:15:36.945Z,11.20
2023-03-06T03:18:03.432Z,8.10
2023-03-06T03:20:30.090Z,11.10
2023-03-06T03:22:56.648Z,11.23
2023-03-06T03:25:25.010Z,7.65
2023-03-06T03:27:51.454Z,8.43
2023-03-06T03:30:17.876Z,9.18
2023-03-06T03:32:44.242Z,8.82
2023-03-06T03:35:12.144Z,7.20
2023-03-06T03:37:39.071Z,9.95
2023-03-06T03:40:07.125Z,8.63
2023-03-06T03:42:36.629Z,8.75
2023-03-06T03:45:03.104Z,7.93
2023-03-06T03:47:29.457Z,8.48
2023-03-06T03:49:55.757Z,7.75
2023-03-06T03:52:22.174Z,14.93
2023-03-06T03:54:48.594Z,8.23
2023-03-06T03:57:14.947Z,10.10
2023-03-06T03:59:41.291Z,9.85
2023-03-06T04:02:09.063Z,9.93
2023-03-06T04:04:35.515Z,12.63
2023-03-06T04:07:01.924Z,9.18
2023-03-06T04:09:28.300Z,9.20
2023-03-06T04:11:54.839Z,7.75
2023-03-06T04:14:21.225Z,12.70
2023-03-06T04:16:47.612Z,8.80
2023-03-06T04:19:13.949Z,6.30
2023-03-06T04:21:40.326Z,8.05
2023-03-06T04:24:07.160Z,8.05
2023-03-06T04:26:33.498Z,7.15
2023-03-06T04:28:59.862Z,9.20
2023-03-06T04:31:26.249Z,9.15
2023-03-06T04:33:52.598Z,10.30
2023-03-06T04:36:29.037Z,7.38
2023-03-06T04:38:59.319Z,7.88
2023-03-06T04:41:26.354Z,7.77
2023-03-06T04:43:53.189Z,6.40
2023-03-06T04:46:19.641Z,6.72
2023-03-06T04:48:46.056Z,7.55
2023-03-06T04:51:13.606Z,11.63
2023-03-06T04:53:39.960Z,6.57
2023-03-06T04:56:06.967Z,5.97
2023-03-06T04:58:33.602Z,5.75
2023-03-06T05:00:59.919Z,6.47
2023-03-06T05:03:26.286Z,6.32
2023-03-06T05:05:52.642Z,8.83
2023-03-06T05:08:18.970Z,6.35
2023-03-06T05:10:45.559Z,6.22
2023-03-06T05:13:12.480Z,6.10
2023-03-06T05:15:41.947Z,4.53
2023-03-06T05:18:08.281Z,5.23
2023-03-06T05:20:34.635Z,5.05
2023-03-06T05:23:00.946Z,4.90
2023-03-06T05:25:27.339Z,3.65
2023-03-06T05:27:53.674Z,4.22
2023-03-06T05:30:23.021Z,3.63
2023-03-06T05:32:50.336Z,6.30
2023-03-06T05:35:20.063Z,3.25
2023-03-06T05:37:46.815Z,4.40
2023-03-06T05:40:14.721Z,3.22
2023-03-06T05:42:41.575Z,3.80
2023-03-06T05:45:08.718Z,3.67
2023-03-06T05:47:35.146Z,3.38
2023-03-06T05:50:01.799Z,5.55
2023-03-06T05:52:28.147Z,4.55
2023-03-06T05:54:54.893Z,3.77
2023-03-06T05:57:23.346Z,3.80
2023-03-06T05:59:50.187Z,4.03
2023-03-06T06:02:18.189Z,4.60
2023-03-06T06:04:44.830Z,7.63
2023-03-06T06:07:14.534Z,5.50
2023-03-06T06:09:41.252Z,4.78
2023-03-06T06:12:07.930Z,3.78
2023-03-06T06:14:34.690Z,4.82
2023-03-06T06:17:01.153Z,5.72
2023-03-06T06:19:31.350Z,7.20
2023-03-06T06:21:58.086Z,6.45
2023-03-06T06:24:26.785Z,4.15
2023-03-06T06:26:55.933Z,5.03
2023-03-06T06:29:23.599Z,2.85
2023-03-06T06:31:50.386Z,3.20
2023-03-06T06:34:16.883Z,3.55
2023-03-06T06:36:43.602Z,4.57
2023-03-06T06:39:13.385Z,4.57
2023-03-06T06:41:57.042Z,2.33
2023-03-06T06:44:26.031Z,4.37
2023-03-06T06:47:21.794Z,3.83
2023-03-06T06:49:39.492Z,4.30
2023-03-06T06:52:06.730Z,1.80
2023-03-06T06:54:34.597Z,1.45
2023-03-06T06:57:00.913Z,1.27
2023-03-06T06:59:27.320Z,3.15
2023-03-06T07:01:53.904Z,1.55
2023-03-06T07:04:20.406Z,3.95
2023-03-06T07:06:47.010Z,1.20
2023-03-06T07:09:13.897Z,1.13
2023-03-06T07:11:40.977Z,1.20
2023-03-06T07:14:07.902Z,1.02
2023-03-06T07:16:34.323Z,1.27
2023-03-06T07:19:00.704Z,1.73
2023-03-06T07:21:27.246Z,1.97
2023-03-06T07:23:54.256Z,0.73
2023-03-06T07:26:20.624Z,2.08
2023-03-06T07:28:52.621Z,1.20
2023-03-06T07:31:25.159Z,0.82
2023-03-06T07:33:53.000Z,1.30
2023-03-06T07:36:20.495Z,1.13
2023-03-06T07:38:46.850Z,0.47
2023-03-06T07:41:14.439Z,1.90
2023-03-06T07:43:42.387Z,1.85
2023-03-06T07:46:09.376Z,2.07
2023-03-06T07:48:37.313Z,3.28
2023-03-06T07:51:06.924Z,2.03
2023-03-06T07:53:34.500Z,0.57
2023-03-06T07:56:01.056Z,1.55
2023-03-06T07:58:27.375Z,1.13
2023-03-06T08:00:53.730Z,8.43
2023-03-06T08:03:20.205Z,0.98
2023-03-06T08:05:46.569Z,1.75
2023-03-06T08:08:12.897Z,0.82
2023-03-06T08:10:39.296Z,2.60
2023-03-06T08:13:06.319Z,1.60
2023-03-06T08:15:32.639Z,1.98
2023-03-06T08:17:59.077Z,3.47
2023-03-06T08:20:25.778Z,0.55
2023-03-06T08:22:52.137Z,0.33
2023-03-06T08:25:18.653Z,0.65
2023-03-06T08:27:46.655Z,0.98
2023-03-06T08:30:13.569Z,0.30
2023-03-06T08:32:40.118Z,2.00
2023-03-06T08:35:07.523Z,4.23
2023-03-06T08:37:33.944Z,0.82
2023-03-06T08:40:02.513Z,0.20
2023-03-06T08:42:28.865Z,0.20
2023-03-06T08:44:55.279Z,1.85
2023-03-06T08:47:21.623Z,0.33
2023-03-06T08:49:47.991Z,0.15
2023-03-06T08:52:16.873Z,1.25
2023-03-06T08:54:43.287Z,0.22
2023-03-06T08:57:09.600Z,0.20
2023-03-06T08:59:36.893Z,0.27
2023-03-06T09:02:05.322Z,1.52
2023-03-06T09:04:31.814Z,0.20
2023-03-06T09:07:00.558Z,2.45
2023-03-06T09:09:26.896Z,2.85
2023-03-06T09:11:53.558Z,0.60
2023-03-06T09:14:19.888Z,1.15
2023-03-06T09:16:46.255Z,0.52
2023-03-06T09:19:12.628Z,1.00
2023-03-06T09:21:39.162Z,0.47
2023-03-06T09:24:05.684Z,1.77
2023-03-06T09:26:45.054Z,0.57
2023-03-06T09:29:13.000Z,0.30
2023-03-06T09:31:39.386Z,1.45
2023-03-06T09:34:05.721Z,0.43
2023-03-06T09:36:40.126Z,1.07
2023-03-06T09:39:12.339Z,2.03
2023-03-06T09:41:41.482Z,0.20
2023-03-06T09:44:16.186Z,0.50
2023-03-06T09:46:57.447Z,0.50
2023-03-06T09:49:41.991Z,0.73
2023-03-06T09:52:23.481Z,0.50
2023-03-06T09:54:58.914Z,0.38
2023-03-06T09:57:35.364Z,1.60
2023-03-06T10:00:06.736Z,0.40
2023-03-06T10:02:40.975Z,1.53
2023-03-06T10:05:13.605Z,0.63
2023-03-06T10:07:46.835Z,3.05
2023-03-06T10:10:55.018Z,0.15
2023-03-06T10:13:46.837Z,0.52
2023-03-06T10:16:26.071Z,0.10
2023-03-06T10:18:54.163Z,0.80
2023-03-06T10:21:27.230Z,1.50
2023-03-06T10:23:58.388Z,1.05
2023-03-06T10:26:27.828Z,1.55
2023-03-06T10:29:12.534Z,0.57
2023-03-06T10:31:44.639Z,0.57
2023-03-06T10:34:16.915Z,1.38
2023-03-06T10:36:43.299Z,0.10
2023-03-06T10:39:15.744Z,1.50
2023-03-06T10:41:43.299Z,0.23
2023-03-06T10:44:13.165Z,0.20
2023-03-06T10:46:43.103Z,0.50
2023-03-06T10:49:30.188Z,1.20
2023-03-06T10:52:01.579Z,0.55
2023-03-06T10:54:30.830Z,1.03
2023-03-06T10:56:57.171Z,0.35
2023-03-06T10:59:29.370Z,1.27
2023-03-06T11:01:58.427Z,1.38
2023-03-06T11:04:28.554Z,0.10
2023-03-06T11:07:21.753Z,0.40
2023-03-06T11:09:57.281Z,0.40
2023-03-06T11:12:23.677Z,0.32
2023-03-06T11:15:12.596Z,0.20
2023-03-06T11:17:50.302Z,0.95
2023-03-06T11:20:51.884Z,0.57
2023-03-06T11:23:41.235Z,0.30
2023-03-06T11:26:16.617Z,0.25
2023-03-06T11:29:00.788Z,0.20
2023-03-06T11:32:07.815Z,2.47
2023-03-06T11:34:41.463Z,0.43
2023-03-06T11:37:20.181Z,0.68
2023-03-06T11:39:53.270Z,0.38
2023-03-06T11:42:43.818Z,0.40
2023-03-06T11:45:29.373Z,0.40
2023-03-06T11:48:13.879Z,2.93
2023-03-06T11:50:45.800Z,0.55
2023-03-06T11:53:33.642Z,0.32
2023-03-06T11:56:16.006Z,0.40
2023-03-06T11:59:07.682Z,0.77
2023-03-06T12:01:41.801Z,0.83
2023-03-06T12:04:36.882Z,0.93
2023-03-06T12:07:40.598Z,0.70
2023-03-06T12:10:52.800Z,1.58
2023-03-06T12:13:35.160Z,0.65
2023-03-06T12:16:01.745Z,1.40
2023-03-06T12:18:36.960Z,2.25
2023-03-06T12:21:07.028Z,2.25
2023-03-06T12:24:07.162Z,1.77
2023-03-06T12:27:08.950Z,4.13
2023-03-06T12:30:04.094Z,1.87
2023-03-06T12:32:45.682Z,1.23
2023-03-06T12:35:29.463Z,1.38
2023-03-06T12:38:11.031Z,3.95
2023-03-06T12:41:28.898Z,2.40
2023-03-06T12:44:24.321Z,3.20
2023-03-06T12:46:59.107Z,1.30
2023-03-06T12:49:38.464Z,1.15
2023-03-06T12:52:07.571Z,2.88
2023-03-06T12:54:38.013Z,1.40
2023-03-06T12:57:07.338Z,2.27
2023-03-06T12:59:36.773Z,2.55
2023-03-06T13:02:21.313Z,6.93
2023-03-06T13:05:04.973Z,2.55
2023-03-06T13:07:52.887Z,3.28
2023-03-06T13:10:33.508Z,1.27
2023-03-06T13:13:38.619Z,2.55
2023-03-06T13:16:12.830Z,3.60
2023-03-06T13:18:42.130Z,2.13
2023-03-06T13:21:44.390Z,3.03
2023-03-06T13:24:37.474Z,2.20
2023-03-06T13:27:12.393Z,5.00
2023-03-06T13:29:38.636Z,4.40
2023-03-06T13:34:56.398Z,4.40
2023-03-06T13:37:23.146Z,4.60
2023-03-06T13:39:55.638Z,6.03
2023-03-06T13:42:33.023Z,5.88
2023-03-06T13:45:15.365Z,5.53
2023-03-06T13:48:19.499Z,5.38
2023-03-06T13:50:47.278Z,4.60
2023-03-06T13:53:49.103Z,6.07
2023-03-06T13:56:15.403Z,5.40
2023-03-06T13:59:17.570Z,5.70
2023-03-06T14:02:02.393Z,5.22
2023-03-06T14:04:35.676Z,6.40
2023-03-06T14:07:06.244Z,9.20
2023-03-06T14:09:42.534Z,5.55
2023-03-06T14:12:36.635Z,5.88
2023-03-06T14:15:14.952Z,5.57
2023-03-06T14:17:54.377Z,8.27
2023-03-06T14:20:22.534Z,5.22
2023-03-06T14:22:49.240Z,6.72
2023-03-06T14:25:31.752Z,4.47
2023-03-06T14:28:05.686Z,4.82
2023-03-06T14:30:49.035Z,4.23
2023-03-06T14:33:27.639Z,5.65
2023-03-06T14:35:56.682Z,7.28
2023-03-06T14:38:23.107Z,4.00
2023-03-06T14:40:49.478Z,4.90
2023-03-06T14:43:22.864Z,5.10
2023-03-06T14:45:55.971Z,4.57
2023-03-06T14:48:24.451Z,3.42
2023-03-06T14:50:53.191Z,5.75
2023-03-06T14:53:28.098Z,3.45
2023-03-06T14:56:04.453Z,6.57
2023-03-06T14:58:38.220Z,4.80
2023-03-06T15:01:13.121Z,4.85
2023-03-06T15:03:50.088Z,4.30
2023-03-06T15:06:24.245Z,3.38
2023-03-06T15:09:27.809Z,3.03
2023-03-06T15:12:01.181Z,4.38
2023-03-06T15:14:55.579Z,3.25
2023-03-06T15:17:26.120Z,3.70
2023-03-06T15:19:58.098Z,3.65
2023-03-06T15:22:38.749Z,3.47
2023-03-06T15:25:30.009Z,3.63
2023-03-06T15:28:22.562Z,3.65
2023-03-06T15:31:10.535Z,5.43
2023-03-06T15:33:37.609Z,4.65
2023-03-06T15:36:06.261Z,4.63
2023-03-06T15:38:41.896Z,3.97
2023-03-06T15:41:31.714Z,4.35
2023-03-06T15:43:59.952Z,5.35
2023-03-06T15:46:26.335Z,6.18
2023-03-06T15:49:04.169Z,4.37
2023-03-06T15:51:32.101Z,4.07
2023-03-06T15:54:09.861Z,4.88
2023-03-06T15:56:40.744Z,7.53
2023-03-06T15:59:10.697Z,6.13
2023-03-06T16:01:37.488Z,5.77
2023-03-06T16:04:04.196Z,6.05
2023-03-06T16:06:30.566Z,5.55
2023-03-06T16:08:57.135Z,7.07
2023-03-06T16:11:35.337Z,12.13
2023-03-06T16:14:18.852Z,11.20
2023-03-06T16:16:45.582Z,12.20
2023-03-06T16:19:25.264Z,12.65
2023-03-06T16:21:52.718Z,13.20
2023-03-06T16:24:19.190Z,11.80
2023-03-06T16:26:48.043Z,13.87
2023-03-06T16:29:19.789Z,14.35
2023-03-06T16:31:46.898Z,10.88
2023-03-06T16:34:14.024Z,14.45
2023-03-06T16:36:40.754Z,13.40
2023-03-06T16:39:13.475Z,15.93
2023-03-06T16:41:39.905Z,13.65
2023-03-06T16:44:07.726Z,14.25
2023-03-06T16:46:38.540Z,14.95
2023-03-06T16:49:04.886Z,14.13
2023-03-06T16:51:31.779Z,15.00
2023-03-06T16:53:58.082Z,17.00
2023-03-06T16:56:24.420Z,15.52
2023-03-06T16:58:50.819Z,16.25
2023-03-06T17:01:19.026Z,16.33
2023-03-06T17:03:45.813Z,15.90
2023-03-06T17:06:18.021Z,16.40
2023-03-06T17:08:45.223Z,16.40
2023-03-06T17:11:11.922Z,14.60
2023-03-06T17:13:38.441Z,18.98
2023-03-06T17:16:05.260Z,17.10
2023-03-06T17:18:31.688Z,16.60
2023-03-06T17:20:58.896Z,18.13
2023-03-06T17:23:27.180Z,13.52
2023-03-06T17:26:07.031Z,16.70
2023-03-06T17:28:34.821Z,14.63
2023-03-06T17:31:02.845Z,15.93
2023-03-06T17:33:29.622Z,19.02
2023-03-06T17:36:00.406Z,15.80
2023-03-06T17:38:27.110Z,16.27
2023-03-06T17:40:53.600Z,15.80
2023-03-06T17:43:20.805Z,18.08
2023-03-06T17:45:47.458Z,14.45
2023-03-06T17:48:14.359Z,17.27
2023-03-06T17:50:40.672Z,17.17
2023-03-06T17:53:06.987Z,16.40
2023-03-06T17:55:33.404Z,15.38
2023-03-06T17:57:59.860Z,14.75
2023-03-06T18:00:29.091Z,13.32
2023-03-06T18:02:55.466Z,15.13
2023-03-06T18:05:21.859Z,18.67
2023-03-06T18:07:48.278Z,16.63
2023-03-06T18:10:14.710Z,15.95
2023-03-06T18:12:41.096Z,15.65
2023-03-06T18:15:07.990Z,19.30
2023-03-06T18:17:34.521Z,18.33
2023-03-06T18:20:00.885Z,18.08
2023-03-06T18:22:27.259Z,17.85
2023-03-06T18:24:53.585Z,22.17
2023-03-06T18:27:20.664Z,20.65
2023-03-06T18:29:47.225Z,16.83
2023-03-06T18:32:14.389Z,20.92
2023-03-06T18:34:40.725Z,18.88
2023-03-06T18:37:07.046Z,20.63
2023-03-06T18:39:33.389Z,20.27
2023-03-06T18:41:59.748Z,20.97
2023-03-06T18:44:26.101Z,20.23
2023-03-06T18:46:52.775Z,18.65
2023-03-06T18:49:19.228Z,22.33
2023-03-06T18:51:47.989Z,19.30
2023-03-06T18:54:14.466Z,19.67
2023-03-06T18:56:44.005Z,21.40
2023-03-06T18:59:16.087Z,20.90
2023-03-06T19:01:45.091Z,17.38
2023-03-06T19:04:12.088Z,22.83
2023-03-06T19:06:39.362Z,19.20
2023-03-06T19:09:06.023Z,22.50
2023-03-06T19:11:33.101Z,22.05
2023-03-06T19:13:59.976Z,18.13
2023-03-06T19:16:28.100Z,18.45
2023-03-06T19:18:57.709Z,22.57
2023-03-06T19:21:26.329Z,20.75
2023-03-06T19:23:53.076Z,24.95
2023-03-06T19:26:19.939Z,21.80
2023-03-06T19:28:47.314Z,21.05
2023-03-06T19:31:15.885Z,21.80
2023-03-06T19:33:43.103Z,23.33
2023-03-06T19:36:11.877Z,21.23
2023-03-06T19:38:38.462Z,26.02
2023-03-06T19:41:05.423Z,21.15
2023-03-06T19:43:31.893Z,26.50
2023-03-06T19:45:58.372Z,22.85
2023-03-06T19:48:24.724Z,25.80
2023-03-06T19:50:51.305Z,24.52
2023-03-06T19:53:17.706Z,23.08
2023-03-06T19:55:44.007Z,23.17
2023-03-06T19:58:11.129Z,23.52
2023-03-06T20:00:37.735Z,25.98
2023-03-06T20:03:04.209Z,26.70
2023-03-06T20:05:30.585Z,25.95
2023-03-06T20:07:56.890Z,27.40
2023-03-06T20:10:23.240Z,24.23
2023-03-06T20:12:49.652Z,22.17
2023-03-06T20:15:16.732Z,27.42
2023-03-06T20:17:43.036Z,25.45
2023-03-06T20:20:10.201Z,24.97
2023-03-06T20:22:36.649Z,22.42
2023-03-06T20:25:03.427Z,23.80
2023-03-06T20:27:29.819Z,22.85
2023-03-06T20:29:56.226Z,25.10
2023-03-06T20:32:22.771Z,25.70
2023-03-06T20:34:49.215Z,21.10
2023-03-06T20:37:15.546Z,24.10
2023-03-06T20:39:41.873Z,26.08
2023-03-06T20:42:08.252Z,24.70
2023-03-06T20:44:34.614Z,24.90
2023-03-06T20:47:01.008Z,25.42
2023-03-06T20:49:28.474Z,25.10
2023-03-06T20:51:55.944Z,24.58
2023-03-06T20:54:22.282Z,23.70
2023-03-06T20:56:49.219Z,23.73
2023-03-06T20:59:15.841Z,22.08
2023-03-06T21:01:44.911Z,21.60
2023-03-06T21:04:13.893Z,23.40
2023-03-06T21:06:42.369Z,25.90
2023-03-06T21:09:08.693Z,26.73
2023-03-06T21:11:35.194Z,25.67
2023-03-06T21:14:01.920Z,23.33
2023-03-06T21:16:30.043Z,22.08
2023-03-06T21:18:57.876Z,21.10
2023-03-06T21:21:27.155Z,21.87
2023-03-06T21:23:53.488Z,21.05
2023-03-06T21:26:25.033Z,20.60
2023-03-06T21:28:51.549Z,21.48
2023-03-06T21:31:19.813Z,18.63
2023-03-06T21:33:47.169Z,22.03
2023-03-06T21:36:13.537Z,20.85
2023-03-06T21:38:40.018Z,19.40
2023-03-06T21:41:28.659Z,21.52
2023-03-06T21:44:00.770Z,19.13
2023-03-06T21:46:28.002Z,19.43
2023-03-06T21:48:54.773Z,20.50
2023-03-06T21:51:23.590Z,18.08
2023-03-06T21:53:53.249Z,21.17
2023-03-06T21:56:21.971Z,19.35
2023-03-06T21:58:48.376Z,18.23
2023-03-06T22:01:23.444Z,14.02
2023-03-06T22:03:50.045Z,16.20
2023-03-06T22:06:22.496Z,14.60
2023-03-06T22:08:48.840Z,11.75
2023-03-06T22:11:17.643Z,12.97
2023-03-06T22:13:45.078Z,13.18
2023-03-06T22:16:12.273Z,12.35
2023-03-06T22:18:38.918Z,8.95
2023-03-06T22:21:10.098Z,10.18
2023-03-06T22:23:36.989Z,9.33
2023-03-06T22:26:05.409Z,8.65
2023-03-06T22:28:31.842Z,6.72
2023-03-06T22:31:08.488Z,7.32
2023-03-06T22:33:35.483Z,6.65
2023-03-06T22:36:13.462Z,6.37
2023-03-06T22:38:42.314Z,6.57
2023-03-06T22:41:10.068Z,5.32
2023-03-06T22:43:37.129Z,5.40
2023-03-06T22:46:06.330Z,5.35
2023-03-06T22:48:33.067Z,4.40
2023-03-06T22:51:07.808Z,4.18
2023-03-06T22:53:34.158Z,5.05
2023-03-06T22:56:01.903Z,5.22
2023-03-06T22:58:34.193Z,5.57
2023-03-06T23:01:06.005Z,4.30
2023-03-06T23:03:32.418Z,5.32
2023-03-06T23:05:58.754Z,7.88
2023-03-06T23:08:25.086Z,4.75
2023-03-06T23:10:51.389Z,4.38
2023-03-06T23:13:17.782Z,6.23
2023-03-06T23:15:44.143Z,5.10
2023-03-06T23:18:10.488Z,3.80
2023-03-06T23:20:42.010Z,5.00
2023-03-06T23:23:08.350Z,8.15
2023-03-06T23:25:34.730Z,6.27
2023-03-06T23:28:01.742Z,5.43
2023-03-06T23:30:28.136Z,6.60
2023-03-06T23:32:54.490Z,3.35
2023-03-06T23:35:20.874Z,5.07
2023-03-06T23:37:47.197Z,7.57
2023-03-06T23:40:13.929Z,4.50
2023-03-06T23:42:40.307Z,3.60
2023-03-06T23:45:07.333Z,4.75
2023-03-06T23:47:34.119Z,3.80
2023-03-06T23:50:00.549Z,5.33
2023-03-06T23:52:26.871Z,7.85
2023-03-06T23:54:53.192Z,9.48
2023-03-06T23:57:19.596Z,9.30
2023-03-06T23:59:46.032Z,7.95
